createdAt,value
2023-04-16T00:00:56.887Z,62.22
2023-04-16T00:06:17.502Z,62.32
2023-04-16T00:11:37.980Z,62.50
2023-04-16T00:16:58.563Z,62.39
2023-04-16T00:22:19.155Z,62.59
2023-04-16T00:27:40.254Z,62.75
2023-04-16T00:33:00.950Z,62.78
2023-04-16T00:38:21.674Z,62.85
2023-04-16T00:43:42.506Z,62.80
2023-04-16T00:49:04.109Z,63.01
2023-04-16T00:54:25.567Z,62.99
2023-04-16T00:59:46.531Z,63.13
2023-04-16T01:05:07.215Z,62.93
2023-04-16T01:10:28.570Z,63.02
2023-04-16T01:15:49.211Z,63.12
2023-04-16T01:21:09.940Z,63.13
2023-04-16T01:26:31.285Z,63.25
2023-04-16T01:31:52.100Z,63.20
2023-04-16T01:37:18.958Z,63.27
2023-04-16T01:42:40.540Z,63.36
2023-04-16T01:48:03.002Z,63.48
2023-04-16T01:53:23.679Z,63.45
2023-04-16T01:58:46.022Z,63.37
2023-04-16T02:04:08.581Z,63.52
2023-04-16T02:09:29.034Z,63.83
2023-04-16T02:14:49.822Z,64.00
2023-04-16T02:20:15.929Z,64.01
2023-04-16T02:25:46.256Z,64.15
2023-04-16T02:31:07.870Z,64.35
2023-04-16T02:36:35.396Z,64.46
2023-04-16T02:41:56.115Z,64.52
2023-04-16T02:47:17.387Z,64.54
2023-04-16T02:52:37.989Z,64.59
2023-04-16T02:57:58.414Z,64.52
2023-04-16T03:03:19.583Z,64.58
2023-04-16T03:08:40.716Z,64.75
2023-04-16T03:14:01.149Z,64.59
2023-04-16T03:19:21.716Z,64.60
2023-04-16T03:24:42.292Z,64.80
2023-04-16T03:30:03.750Z,65.00
2023-04-16T03:35:27.440Z,65.08
2023-04-16T03:40:48.125Z,65.14
2023-04-16T03:46:09.399Z,65.21
2023-04-16T03:51:30.101Z,65.16
2023-04-16T03:56:52.035Z,65.15
2023-04-16T04:02:12.417Z,65.19
2023-04-16T04:07:33.366Z,65.37
2023-04-16T04:12:54.314Z,65.45
2023-04-16T04:18:15.214Z,65.35
2023-04-16T04:23:37.319Z,65.41
2023-04-16T04:28:59.423Z,65.41
2023-04-16T04:34:20.644Z,65.59
2023-04-16T04:39:41.604Z,65.57
2023-04-16T04:45:02.307Z,65.56
2023-04-16T04:50:26.417Z,65.59
2023-04-16T04:55:49.218Z,65.71
2023-04-16T05:01:11.810Z,65.70
2023-04-16T05:06:32.903Z,65.64
2023-04-16T05:11:53.953Z,65.88
2023-04-16T05:17:14.815Z,65.99
2023-04-16T05:22:35.844Z,66.16
2023-04-16T05:27:56.784Z,65.90
2023-04-16T05:33:17.469Z,65.83
2023-04-16T05:38:38.109Z,65.72
2023-04-16T05:43:58.486Z,65.72
2023-04-16T05:49:19.042Z,65.77
2023-04-16T05:54:39.520Z,65.67
2023-04-16T06:00:00.338Z,65.69
2023-04-16T06:05:21.227Z,65.95
2023-04-16T06:10:42.065Z,66.02
2023-04-16T06:16:02.615Z,66.05
2023-04-16T06:21:23.373Z,66.25
2023-04-16T06:26:44.557Z,66.24
2023-04-16T06:32:05.589Z,66.33
2023-04-16T06:37:26.154Z,65.79
2023-04-16T06:42:46.654Z,64.71
2023-04-16T06:48:07.502Z,64.39
2023-04-16T06:53:29.346Z,64.38
2023-04-16T06:58:50.377Z,64.38
2023-04-16T07:04:12.130Z,64.27
2023-04-16T07:09:33.297Z,64.36
2023-04-16T07:14:53.592Z,64.94
2023-04-16T07:20:17.448Z,64.41
2023-04-16T07:25:38.208Z,65.52
2023-04-16T07:30:59.710Z,65.74
2023-04-16T07:36:20.981Z,64.46
2023-04-16T07:41:41.747Z,64.41
2023-04-16T07:47:05.283Z,64.21
2023-04-16T07:52:26.845Z,64.86
2023-04-16T07:57:47.625Z,64.49
2023-04-16T08:03:10.599Z,65.20
2023-04-16T08:08:31.711Z,65.74
2023-04-16T08:13:52.220Z,64.79
2023-04-16T08:19:13.266Z,65.73
2023-04-16T08:24:36.706Z,65.15
2023-04-16T08:29:57.953Z,65.09
2023-04-16T08:35:18.876Z,65.09
2023-04-16T08:40:42.455Z,64.87
2023-04-16T08:46:05.781Z,64.88
2023-04-16T08:51:30.349Z,64.70
2023-04-16T08:56:51.906Z,64.64
2023-04-16T09:02:16.331Z,63.69
2023-04-16T09:07:38.531Z,63.63
2023-04-16T09:12:59.167Z,63.75
2023-04-16T09:18:21.185Z,63.68
2023-04-16T09:23:42.022Z,62.91
2023-04-16T09:29:02.703Z,62.40
2023-04-16T09:34:23.266Z,61.71
2023-04-16T09:39:44.927Z,61.06
2023-04-16T09:45:06.400Z,60.28
2023-04-16T09:50:27.328Z,60.35
2023-04-16T09:55:47.823Z,60.39
2023-04-16T10:01:10.812Z,60.72
2023-04-16T10:06:31.481Z,60.96
2023-04-16T10:11:52.338Z,61.06
2023-04-16T10:17:12.970Z,60.39
2023-04-16T10:22:34.743Z,58.12
2023-04-16T10:27:56.628Z,55.15
2023-04-16T10:33:19.414Z,52.68
2023-04-16T10:38:52.414Z,50.69
2023-04-16T10:44:13.342Z,49.29
2023-04-16T10:49:35.544Z,49.00
2023-04-16T10:54:59.672Z,48.03
2023-04-16T11:08:17.880Z,43.04
2023-04-16T11:13:38.461Z,41.13
2023-04-16T11:18:59.214Z,36.78
2023-04-16T11:24:19.571Z,33.87
2023-04-16T11:29:41.430Z,30.70
2023-04-16T11:35:04.814Z,30.30
2023-04-16T11:40:29.247Z,32.30
2023-04-16T11:46:27.054Z,32.93
2023-04-16T11:51:48.352Z,30.33
2023-04-16T11:57:09.430Z,27.04
2023-04-16T12:02:41.024Z,20.82
2023-04-16T12:08:03.525Z,18.21
2023-04-16T12:13:24.031Z,17.09
2023-04-16T12:19:00.412Z,16.80
2023-04-16T12:24:21.092Z,16.09
2023-04-16T12:29:41.550Z,12.87
2023-04-16T12:35:02.352Z,12.14
2023-04-16T12:40:23.304Z,11.84
2023-04-16T12:45:44.413Z,11.14
2023-04-16T12:51:04.809Z,10.71
2023-04-16T12:56:25.487Z,10.95
2023-04-16T13:01:46.048Z,10.98
2023-04-16T13:07:06.663Z,12.16
2023-04-16T13:12:27.586Z,13.31
2023-04-16T13:17:47.908Z,16.11
2023-04-16T13:23:08.758Z,19.66
2023-04-16T13:28:29.247Z,19.18
2023-04-16T13:33:50.653Z,16.66
2023-04-16T13:39:11.497Z,18.37
2023-04-16T13:44:32.338Z,20.19
2023-04-16T13:49:56.620Z,18.76
2023-04-16T13:55:19.151Z,15.75
2023-04-16T14:00:42.372Z,12.55
2023-04-16T14:06:03.445Z,13.01
2023-04-16T14:11:24.092Z,11.47
2023-04-16T14:16:44.698Z,11.88
2023-04-16T14:22:06.164Z,13.18
2023-04-16T14:27:28.129Z,12.81
2023-04-16T14:32:48.909Z,14.10
2023-04-16T14:38:11.320Z,17.67
2023-04-16T14:43:31.908Z,20.00
2023-04-16T14:48:52.532Z,23.66
2023-04-16T14:54:13.106Z,24.83
2023-04-16T14:59:33.632Z,22.64
2023-04-16T15:04:54.517Z,22.81
2023-04-16T15:10:15.483Z,25.18
2023-04-16T15:15:35.865Z,24.76
2023-04-16T15:20:56.603Z,22.35
2023-04-16T15:26:17.385Z,21.99
2023-04-16T15:31:38.330Z,26.61
2023-04-16T15:36:59.144Z,30.11
2023-04-16T15:42:19.639Z,33.12
2023-04-16T15:47:41.858Z,34.06
2023-04-16T15:53:03.320Z,34.49
2023-04-16T15:58:24.182Z,35.92
2023-04-16T16:03:44.984Z,37.38
2023-04-16T16:09:06.281Z,38.94
2023-04-16T16:14:27.285Z,39.63
2023-04-16T16:19:48.010Z,41.16
2023-04-16T16:25:10.159Z,42.05
2023-04-16T16:30:30.645Z,42.90
2023-04-16T16:35:51.378Z,43.61
2023-04-16T16:41:12.119Z,43.97
2023-04-16T16:46:32.968Z,44.64
2023-04-16T16:51:53.423Z,45.04
2023-04-16T16:57:15.330Z,45.22
2023-04-16T17:02:36.037Z,45.31
2023-04-16T17:07:57.113Z,45.93
2023-04-16T17:13:19.917Z,46.00
2023-04-16T17:18:40.888Z,46.62
2023-04-16T17:24:02.167Z,47.22
2023-04-16T17:29:26.034Z,47.68
2023-04-16T17:34:46.859Z,47.87
2023-04-16T17:40:07.989Z,47.97
2023-04-16T17:45:28.424Z,48.71
2023-04-16T17:58:46.306Z,49.29
2023-04-16T18:04:07.326Z,49.41
2023-04-16T18:09:27.900Z,49.52
2023-04-16T18:14:48.612Z,49.82
2023-04-16T18:20:11.627Z,49.98
2023-04-16T18:25:35.052Z,50.20
2023-04-16T18:30:58.731Z,50.57
2023-04-16T18:36:20.049Z,50.68
2023-04-16T18:41:41.631Z,50.84
2023-04-16T18:47:02.366Z,51.05
2023-04-16T18:52:23.696Z,51.10
2023-04-16T18:57:45.377Z,51.17
2023-04-16T19:03:14.398Z,51.39
2023-04-16T19:08:35.328Z,51.58
2023-04-16T19:14:06.008Z,51.76
2023-04-16T19:19:31.568Z,52.02
2023-04-16T19:24:54.717Z,52.36
2023-04-16T19:30:23.616Z,52.45
2023-04-16T19:35:48.397Z,52.70
2023-04-16T19:41:13.784Z,52.63
2023-04-16T19:46:50.990Z,52.85
2023-04-16T19:52:18.295Z,52.90
2023-04-16T19:57:39.518Z,52.98
2023-04-16T20:03:02.771Z,53.30
2023-04-16T20:08:23.381Z,53.43
2023-04-16T20:13:47.912Z,53.62
2023-04-16T20:19:09.125Z,53.56
2023-04-16T20:24:32.876Z,53.58
2023-04-16T20:29:53.665Z,53.48
2023-04-16T20:35:14.776Z,53.65
2023-04-16T20:40:38.629Z,53.85
2023-04-16T20:45:59.176Z,54.02
2023-04-16T20:51:19.738Z,54.33
2023-04-16T20:56:40.770Z,54.29
2023-04-16T21:02:01.827Z,54.31
2023-04-16T21:07:22.599Z,54.49
2023-04-16T21:12:43.154Z,54.67
2023-04-16T21:25:35.355Z,54.69
2023-04-16T21:30:56.192Z,54.96
2023-04-16T21:36:17.081Z,55.07
2023-04-16T21:41:37.896Z,55.28
2023-04-16T21:46:58.217Z,55.45
2023-04-16T21:52:18.718Z,55.52
2023-04-16T21:57:39.369Z,55.79
2023-04-16T22:03:02.099Z,55.92
2023-04-16T22:08:24.875Z,56.23
2023-04-16T22:13:47.767Z,56.47
2023-04-16T22:19:08.579Z,56.96
2023-04-16T22:24:28.985Z,57.08
2023-04-16T22:29:49.876Z,57.75
2023-04-16T22:35:10.495Z,58.00
2023-04-16T22:40:31.873Z,58.26
2023-04-16T22:46:06.469Z,58.20
2023-04-16T22:51:27.002Z,58.09
2023-04-16T22:56:48.548Z,58.35
2023-04-16T23:02:08.969Z,58.49
2023-04-16T23:07:29.879Z,58.68
2023-04-16T23:12:50.379Z,58.88
2023-04-16T23:18:11.014Z,58.68
2023-04-16T23:23:31.401Z,58.83
2023-04-16T23:28:52.200Z,58.78
2023-04-16T23:34:12.784Z,58.73
2023-04-16T23:39:33.254Z,58.62
2023-04-16T23:44:53.463Z,58.44
2023-04-16T23:50:14.059Z,58.45
2023-04-16T23:55:34.377Z,58.49
